Flight Track Log - Related Links

Times and Time Zones

All times are in EDT time to prevent confusion due to time zone crossing. See the N830QS flight status page for this flight to view local times or setup timezone preferences in your user account.

Time Position Orientation Groundspeed Altitude Reporting Facility
EDT Latitude Longitude Course Direction KTS MPH feet Rate Location/Type
Tue 08:10:08 AM 40.7167 -74.1500 27° Northeast 220 253 2,200  Level New York TRACON
Tue 08:11:08 AM 40.7667 -74.1167 27° Northeast 266 306 5,600 2,900 Climbing New York TRACON
Tue 08:12:08 AM 40.7833 -74.2167 282° West 292 336 8,000 2,050 Climbing New York TRACON
Tue 08:13:08 AM 40.7833 -74.3167 270° West 289 333 9,700 2,653 Climbing New York TRACON
Tue 08:15:27 AM 40.8492 -74.5458 291° West 308 354 16,800 2,201 Climbing New York Center
Tue 08:16:27 AM 40.8467 -74.6856 269° West 321 369 17,000 950 Climbing New York Center
Tue 08:17:27 AM 40.8322 -74.8053 261° West 346 398 18,700 2,550 Climbing New York Center
Tue 08:18:27 AM 40.8219 -74.9200 263° West 346 398 22,100 3,150 Climbing New York Center
Tue 08:19:27 AM 40.8094 -75.0397 262° West 341 392 25,000 2,350 Climbing New York Center
Tue 08:20:27 AM 40.7964 -75.1650 262° West 336 387 26,800 1,800 Climbing New York Center
Tue 08:21:27 AM 40.7769 -75.2981 259° West 356 410 28,600 1,700 Climbing New York Center
Tue 08:22:27 AM 40.7525 -75.4444 258° West 374 430 30,200 2,250 Climbing New York Center
Tue 08:23:27 AM 40.7042 -75.5561 240° Southwest 374 430 33,100 2,600 Climbing New York Center
Tue 08:24:27 AM 40.6597 -75.6733 243° Southwest 379 436 35,400 2,000 Climbing New York Center
Tue 08:25:27 AM 40.6133 -75.7903 242° Southwest 374 430 37,100 1,300 Climbing New York Center
Tue 08:26:27 AM 40.5706 -75.9075 244° Southwest 368 423 38,000 450 Climbing New York Center
Tue 08:27:27 AM 40.5100 -76.0558 242° Southwest 389 448 38,000  Level New York Center
Tue 08:28:27 AM 40.4578 -76.1936 244° Southwest 408 470 38,000  Level New York Center
Tue 08:29:27 AM 40.4058 -76.3286 243° Southwest 422 486 38,000  Level New York Center
Tue 08:30:27 AM 40.3556 -76.4636 244° Southwest 422 486 38,000  Level New York Center
Tue 08:31:27 AM 40.3425 -76.6042 263° West 394 453 38,000  Level New York Center
Tue 08:32:27 AM 40.3439 -76.7431 271° West 389 448 38,000  Level New York Center
Tue 08:33:27 AM 40.3494 -76.8797 273° West 382 440 38,000  Level New York Center
Tue 08:34:27 AM 40.3528 -77.0136 272° West 382 440 38,000  Level New York Center
Tue 08:35:27 AM 40.3561 -77.1447 272° West 377 434 38,000  Level New York Center
Tue 08:36:27 AM 40.3572 -77.2811 271° West 372 428 38,000  Level New York Center
Tue 08:37:27 AM 40.3633 -77.3961 274° West 364 419 38,000  Level New York Center
Tue 08:39:07 AM 40.3681 -77.6244 272° West 364 419 38,000  Level Cleveland Center
Tue 08:40:09 AM 40.3708 -77.7572 272° West 365 420 38,000  Level Cleveland Center
Tue 08:41:11 AM 40.3717 -77.8883 271° West 363 418 38,000  Level Cleveland Center
Tue 08:42:13 AM 40.3736 -78.0219 271° West 367 422 38,000  Level Cleveland Center
Tue 08:43:15 AM 40.3756 -78.1533 271° West 363 418 38,000  Level Cleveland Center
Tue 08:44:17 AM 40.3775 -78.3114 271° West 363 418 38,000  Level Cleveland Center
Tue 08:45:19 AM 40.3783 -78.4456 271° West 366 421 38,000  Level Cleveland Center
Tue 08:46:21 AM 40.3797 -78.5786 271° West 366 421 38,000  Level Cleveland Center
Tue 08:47:23 AM 40.3806 -78.7139 271° West 370 426 38,000  Level Cleveland Center
Tue 08:48:25 AM 40.3817 -78.8450 271° West 364 419 38,000  Level Cleveland Center
Tue 08:49:27 AM 40.3819 -78.9806 270° West 371 427 38,000  Level Cleveland Center
Tue 08:50:29 AM 40.3828 -79.1397 270° West 366 421 38,000  Level Cleveland Center
Tue 08:51:31 AM 40.3828 -79.2725 270° West 367 422 38,000  Level Cleveland Center
Tue 08:52:33 AM 40.3839 -79.4044 271° West 365 420 38,000  Level Cleveland Center
Tue 08:53:35 AM 40.3828 -79.5381 269° West 367 422 38,000  Level Cleveland Center
Tue 08:54:37 AM 40.3839 -79.6722 271° West 368 423 38,000  Level Cleveland Center
Tue 08:55:39 AM 40.3844 -79.8317 270° West 367 422 38,000  Level Cleveland Center
Tue 08:56:41 AM 40.3833 -79.9650 269° West 367 422 38,000  Level Cleveland Center
Tue 08:57:44 AM 40.3836 -80.0981 270° West 368 423 38,000  Level Cleveland Center
Tue 08:58:46 AM 40.3831 -80.2281 270° West 361 415 38,000  Level Cleveland Center
Tue 08:59:48 AM 40.3819 -80.3617 269° West 360 414 38,000  Level Cleveland Center
Tue 09:00:50 AM 40.3797 -80.4917 269° West 353 406 38,000  Level Cleveland Center
Tue 09:01:52 AM 40.3792 -80.6428 270° West 352 405 38,000  Level Cleveland Center
Tue 09:02:54 AM 40.3781 -80.7708 269° West 347 399 38,000  Level Cleveland Center
Tue 09:03:56 AM 40.3753 -80.8975 268° West 344 396 38,000  Level Cleveland Center
Tue 09:04:58 AM 40.3747 -81.0217 270° West 338 389 38,000  Level Cleveland Center
Tue 09:05:50 AM 40.3731 -81.1256 269° West 337 388 38,000  Level Indianapolis Center
Tue 09:06:52 AM 40.3711 -81.2486 269° West 335 386 38,000  Level Indianapolis Center
Tue 09:07:54 AM 40.3856 -81.3683 279° West 342 394 38,000  Level Indianapolis Center
Tue 09:08:56 AM 40.4119 -81.4822 287° West 326 375 38,000  Level Indianapolis Center
Tue 09:09:57 AM 40.4164 -81.6011 273° West 327 376 38,000  Level Indianapolis Center
Tue 09:10:59 AM 40.4122 -81.7419 268° West 327 376 38,000 -387 Level Indianapolis Center
Tue 09:12:01 AM 40.4086 -81.8625 268° West 327 376 37,200 -1,306 Descending Indianapolis Center
Tue 09:13:03 AM 40.4036 -81.9933 267° West 346 398 35,300 -1,306 Descending Indianapolis Center
Tue 09:14:05 AM 40.3992 -82.1308 268° West 368 423 34,500 -1,161 Descending Indianapolis Center
Tue 09:15:07 AM 40.3936 -82.2653 267° West 366 421 32,900 -1,645 Descending Indianapolis Center
Tue 09:16:09 AM 40.3889 -82.4072 268° West 380 437 31,100 -1,403 Descending Indianapolis Center
Tue 09:17:11 AM 40.3833 -82.5503 267° West 386 444 30,000 -532 Descending Indianapolis Center
Tue 09:18:13 AM 40.3786 -82.6886 267° West 380 437 30,000  Level Indianapolis Center
Tue 09:19:14 AM 40.3733 -82.8247 267° West 372 428 30,000  Level Indianapolis Center
Tue 09:20:16 AM 40.3678 -82.9583 267° West 370 426 30,000  Level Indianapolis Center
Tue 09:21:18 AM 40.3606 -83.1175 267° West 367 422 30,000  Level Indianapolis Center
Tue 09:22:20 AM 40.3553 -83.2500 267° West 367 422 30,000  Level Indianapolis Center
Tue 09:23:22 AM 40.3486 -83.3831 266° West 368 423 30,000  Level Indianapolis Center
Tue 09:24:24 AM 40.3422 -83.5164 266° West 370 426 30,000 -532 Level Indianapolis Center
Tue 09:25:26 AM 40.3369 -83.6519 267° West 374 430 28,900 -1,355 Descending Indianapolis Center
Tue 09:26:28 AM 40.3278 -83.8219 266° West 390 449 27,200 -1,500 Descending Indianapolis Center
Tue 09:27:30 AM 40.3200 -83.9644 266° West 393 452 25,800 -1,355 Descending Indianapolis Center
Tue 09:28:32 AM 40.3136 -84.1053 267° West 391 450 24,400 -1,355 Descending Indianapolis Center
Tue 09:29:34 AM 40.3053 -84.2444 266° West 387 445 23,000 -1,355 Descending Indianapolis Center
Tue 09:30:36 AM 40.2981 -84.3831 266° West 384 442 21,600 -1,355 Descending Indianapolis Center
Tue 09:31:38 AM 40.2906 -84.5200 266° West 380 437 20,200 -774 Descending Indianapolis Center
Tue 09:32:40 AM 40.2817 -84.6722 266° West 353 406 20,000 -97 Descending Indianapolis Center
Tue 09:33:42 AM 40.2744 -84.8014 266° West 357 411 20,000  Level Indianapolis Center
Tue 09:34:44 AM 40.2658 -84.9319 265° West 354 407 20,000  Level Indianapolis Center
Tue 09:35:46 AM 40.2575 -85.0578 265° West 350 403 20,000 -242 Level Indianapolis Center
Tue 09:36:48 AM 40.2508 -85.1758 266° West 326 375 19,500 -1,016 Descending Indianapolis Center
Tue 09:37:50 AM 40.2436 -85.2867 265° West 307 353 17,900 -1,694 Descending Indianapolis Center
Tue 09:38:52 AM 40.2300 -85.4139 262° West 300 345 16,000 -1,694 Descending Indianapolis Center
Tue 09:39:54 AM 40.1886 -85.5064 240° Southwest 294 338 14,400 -1,452 Descending Indianapolis Center
Tue 09:40:56 AM 40.1503 -85.5967 241° Southwest 288 331 13,000 -1,403 Descending Indianapolis Center
Tue 09:41:58 AM 40.1147 -85.6797 241° Southwest 269 310 11,500 -1,452 Descending Indianapolis Center
Tue 09:43:00 AM 40.0769 -85.7633 239° Southwest 268 308 10,000 -1,597 Descending Indianapolis Center
Tue 09:44:02 AM 40.0325 -85.8678 241° Southwest 274 315 8,200 -1,452 Descending Indianapolis Center
Tue 09:45:04 AM 39.9878 -85.9400 231° Southwest 263 303 7,000 -816 Descending Indianapolis Center
Tue 09:46:07 AM 39.9353 -86.0056 224° Southwest 259 298 6,500 -1,016 Descending Indianapolis Center
Tue 09:47:08 AM 39.8831 -86.0708 224° Southwest 261 300 4,900 -1,268 Descending Indianapolis Center
Tue 09:48:10 AM 39.8369 -86.1303 225° Southwest 249 287 3,900 -919 Descending Indianapolis Center
Tue 09:49:12 AM 39.8025 -86.1739 224° Southwest 204 235 3,000 -968 Descending Indianapolis Center
Tue 09:50:14 AM 39.7625 -86.2253 225° Southwest 177 204 1,900 -768 Descending Indianapolis Center
Tue 09:51:17 AM 39.7428 -86.2508 225° Southwest 125 144 1,400 -528 Descending Indianapolis Center
Tue 09:52:19 AM 39.7197 -86.2794 224° Southwest 111 128 800 -581 Descending Indianapolis Center
Tue 09:54:00 AM 39.7167 -86.2833 229° Southwest  Level FlightAware Approximate

Login

Don't have an account? Register now (free) for customized features, flight alerts, and more!